createdAt,value
2022-08-03T00:01:03.559Z,28.30
2022-08-03T00:11:10.964Z,28.28
2022-08-03T00:21:17.960Z,28.24
2022-08-03T00:31:45.012Z,28.20
2022-08-03T00:41:37.493Z,28.15
2022-08-03T00:51:44.839Z,28.20
2022-08-03T01:01:51.994Z,28.18
2022-08-03T01:12:00.543Z,28.13
2022-08-03T01:22:09.199Z,28.14
2022-08-03T01:32:53.427Z,28.14
2022-08-03T01:42:28.556Z,28.11
2022-08-03T01:52:35.960Z,28.16
2022-08-03T02:02:43.783Z,28.13
2022-08-03T02:12:51.311Z,28.11
2022-08-03T02:22:58.775Z,28.04
2022-08-03T02:33:06.384Z,28.04
2022-08-03T02:43:15.937Z,28.07
2022-08-03T02:53:22.807Z,28.00
2022-08-03T03:03:31.859Z,28.06
2022-08-03T03:13:42.798Z,28.01
2022-08-03T03:23:50.327Z,28.05
2022-08-03T03:33:57.666Z,27.99
2022-08-03T03:44:05.144Z,28.02
2022-08-03T03:54:12.371Z,27.96
2022-08-03T04:04:19.540Z,27.99
2022-08-03T04:14:26.713Z,27.98
2022-08-03T04:25:53.488Z,27.97
2022-08-03T04:36:02.603Z,27.96
2022-08-03T04:46:10.186Z,27.95
2022-08-03T04:56:17.536Z,27.92
2022-08-03T05:06:25.138Z,27.92
2022-08-03T05:16:32.395Z,27.90
2022-08-03T05:26:40.112Z,27.91
2022-08-03T05:36:47.479Z,27.90
2022-08-03T05:46:55.035Z,27.87
2022-08-03T05:57:02.027Z,27.85
2022-08-03T06:07:09.085Z,27.87
2022-08-03T06:17:16.379Z,27.82
2022-08-03T06:27:36.778Z,27.80
2022-08-03T06:37:36.174Z,27.78
2022-08-03T06:47:44.566Z,27.76
2022-08-03T06:57:52.146Z,27.74
2022-08-03T07:07:59.307Z,27.78
2022-08-03T07:18:06.315Z,27.94
2022-08-03T07:28:13.500Z,27.99
2022-08-03T07:38:21.191Z,27.94
2022-08-03T07:48:28.745Z,27.99
2022-08-03T07:58:36.100Z,28.00
2022-08-03T08:08:43.411Z,28.11
2022-08-03T08:18:50.847Z,28.15
2022-08-03T08:28:57.864Z,28.04
2022-08-03T08:39:05.164Z,28.03
2022-08-03T08:49:12.306Z,28.10
2022-08-03T08:59:19.269Z,28.19
2022-08-03T09:10:00.101Z,28.26
2022-08-03T09:19:39.263Z,28.29
2022-08-03T09:29:51.582Z,28.31
2022-08-03T09:39:58.863Z,28.35
2022-08-03T09:50:06.110Z,28.19
2022-08-03T10:00:13.170Z,28.21
2022-08-03T10:10:31.110Z,28.34
2022-08-03T10:20:33.103Z,28.41
2022-08-03T10:30:40.481Z,28.37
2022-08-03T10:40:49.362Z,28.43
2022-08-03T10:50:57.890Z,28.33
2022-08-03T11:01:05.462Z,28.37
2022-08-03T11:11:13.066Z,28.39
2022-08-03T11:21:20.244Z,28.36
2022-08-03T11:31:48.702Z,28.39
2022-08-03T11:41:45.044Z,28.48
2022-08-03T11:51:51.837Z,28.52
2022-08-03T12:01:58.891Z,28.55
2022-08-03T12:12:05.747Z,28.58
2022-08-03T12:22:13.350Z,28.60
2022-08-03T12:32:20.522Z,28.49
2022-08-03T12:42:27.910Z,28.46
2022-08-03T12:52:35.514Z,28.48
2022-08-03T13:02:41.629Z,28.44
2022-08-03T13:12:52.781Z,28.63
2022-08-03T13:23:00.983Z,28.55
2022-08-03T13:33:07.792Z,28.55
2022-08-03T13:43:14.576Z,28.58
2022-08-03T13:53:20.704Z,28.63
2022-08-03T14:03:27.017Z,28.70
2022-08-03T14:13:34.059Z,28.75
2022-08-03T14:23:41.079Z,28.78
2022-08-03T14:33:48.834Z,28.80
2022-08-03T14:44:02.145Z,28.85
2022-08-03T14:54:07.447Z,28.90
2022-08-03T15:04:14.280Z,28.95
2022-08-03T15:14:22.216Z,29.00
2022-08-03T15:24:32.478Z,29.06
2022-08-03T15:34:39.745Z,29.10
2022-08-03T15:44:46.020Z,29.09
2022-08-03T15:54:52.764Z,29.06
2022-08-03T16:04:59.922Z,29.05
2022-08-03T16:15:06.577Z,29.02
2022-08-03T16:25:16.007Z,28.99
2022-08-03T16:35:23.245Z,28.96
2022-08-03T16:45:30.169Z,28.93
2022-08-03T16:55:48.868Z,28.91
2022-08-03T17:05:49.631Z,28.89
2022-08-03T17:16:01.336Z,28.88
2022-08-03T17:26:17.315Z,28.86
2022-08-03T17:36:20.174Z,28.84
2022-08-03T17:46:27.089Z,28.83
2022-08-03T17:56:44.941Z,28.82
2022-08-03T18:06:56.245Z,28.81
2022-08-03T18:16:57.522Z,28.82
2022-08-03T18:27:07.227Z,28.81
2022-08-03T18:37:14.390Z,28.83
2022-08-03T18:47:25.590Z,28.88
2022-08-03T18:57:34.923Z,28.85
2022-08-03T19:07:44.823Z,28.80
2022-08-03T19:17:56.733Z,28.93
2022-08-03T19:28:06.131Z,29.08
2022-08-03T19:38:14.430Z,28.97
2022-08-03T19:48:26.437Z,28.96
2022-08-03T19:58:34.507Z,28.96
2022-08-03T20:08:44.136Z,28.92
2022-08-03T20:18:51.248Z,29.13
2022-08-03T20:28:58.588Z,29.29
2022-08-03T20:39:09.675Z,29.19
2022-08-03T20:49:16.655Z,29.14
2022-08-03T20:59:23.845Z,29.16
2022-08-03T21:09:39.781Z,29.13
2022-08-03T21:19:51.733Z,29.13
2022-08-03T21:29:54.179Z,29.11
2022-08-03T21:40:00.535Z,29.16
2022-08-03T21:50:09.668Z,29.12
2022-08-03T22:00:16.908Z,29.08
2022-08-03T22:10:23.720Z,29.13
2022-08-03T22:20:30.489Z,29.15
2022-08-03T22:30:37.543Z,29.15
2022-08-03T22:40:44.342Z,29.15
2022-08-03T22:50:50.705Z,29.13
2022-08-03T23:00:56.961Z,29.06
2022-08-03T23:11:03.366Z,29.05
2022-08-03T23:21:11.630Z,29.16
2022-08-03T23:31:21.067Z,29.16
2022-08-03T23:41:27.325Z,29.13
2022-08-03T23:51:33.688Z,29.18
